Terminal Aerodrome Forecast
Issued by NWS

Home | Current Version | Previous Version | Text Only | Print | Product List | Glossary On
Versions: 1 2 3 4 5 6 7 8 9 10 11 12 13 14 15 16 17 18 19 20 21 22 23 24 25 26 27 28
000
FTUS45 KABQ 240500
TAFROW
TAF
KROW 240535Z 2406/2506 VRB04KT P6SM SKC
     FM240900 VRB04KT 3SM BR SCT002
      TEMPO 2411/2414 3/4SM BR BKN002
     FM241600 16007KT P6SM SKC
     FM250200 VRB05KT P6SM SKC=

USA.gov is the U.S. government's official web portal to all federal, state and local government web resources and services.